Time;durP1;ratioP1;P1;durP2;ratioP2;P2;SDS_P1;SDS_P2;PMS_P1;PMS_P2;Temp;Humidity;BMP_temperature;BMP_pressure;BME280_temperature;BME280_humidity;BME280_pressure;Samples;Min_cycle;Max_cycle;Signal;HPM_P1;HPM_P2
2022/12/27 00:01:25;;;;;;;10.23;2.75;;;;;;;;;;5035123;28;20203;-66
2022/12/27 00:03:52;;;;;;;9.40;3.40;;;;;;;;;;5035157;28;20192;-66
2022/12/27 00:06:21;;;;;;;8.65;3.00;;;;;;;;;;5035018;28;20556;-67
2022/12/27 00:08:48;;;;;;;7.35;3.08;;;;;;;;;;5034876;28;20198;-68
2022/12/27 00:11:16;;;;;;;7.55;3.30;;;;;;;;;;5034506;28;20229;-66
2022/12/27 00:13:44;;;;;;;9.75;3.47;;;;;;;;;;5034813;28;20208;-66
2022/12/27 00:16:13;;;;;;;4.93;3.33;;;;;;;;;;5034900;28;20200;-66
2022/12/27 00:18:40;;;;;;;5.88;3.08;;;;;;;;;;5034404;28;20249;-66
2022/12/27 00:21:08;;;;;;;7.00;3.17;;;;;;;;;;5034135;28;20209;-66
2022/12/27 00:23:36;;;;;;;8.38;3.10;;;;;;;;;;5034576;28;20191;-66
2022/12/27 00:26:05;;;;;;;9.40;3.05;;;;;;;;;;5034717;28;20208;-65
2022/12/27 00:28:32;;;;;;;13.15;4.00;;;;;;;;;;5034271;28;20678;-66
2022/12/27 00:31:00;;;;;;;8.70;3.00;;;;;;;;;;5034680;28;20217;-65
2022/12/27 00:33:29;;;;;;;5.72;3.00;;;;;;;;;;5034648;28;20280;-67
2022/12/27 00:35:59;;;;;;;6.28;2.53;;;;;;;;;;5034178;28;20196;-66
2022/12/27 00:38:26;;;;;;;5.65;2.85;;;;;;;;;;5034363;28;20227;-66
2022/12/27 00:40:53;;;;;;;4.38;3.05;;;;;;;;;;5034004;28;20202;-65
2022/12/27 00:43:20;;;;;;;5.55;3.25;;;;;;;;;;5034262;28;20205;-66
2022/12/27 00:45:47;;;;;;;6.57;2.83;;;;;;;;;;5034565;28;20198;-66
2022/12/27 00:48:14;;;;;;;8.45;2.92;;;;;;;;;;5033907;28;20713;-66
2022/12/27 00:50:44;;;;;;;4.20;2.95;;;;;;;;;;5034165;28;20211;-66
2022/12/27 00:53:12;;;;;;;4.15;2.88;;;;;;;;;;5034265;28;20194;-65
2022/12/27 00:55:39;;;;;;;4.40;2.70;;;;;;;;;;5034124;28;20197;-65
2022/12/27 00:58:06;;;;;;;9.80;3.25;;;;;;;;;;5033704;28;20654;-66
2022/12/27 01:00:33;;;;;;;7.13;3.38;;;;;;;;;;5033732;28;20206;-66
2022/12/27 01:03:00;;;;;;;8.65;3.35;;;;;;;;;;5034215;28;20559;-68
2022/12/27 01:05:28;;;;;;;6.32;2.97;;;;;;;;;;5033679;28;20652;-68
2022/12/27 01:07:56;;;;;;;6.60;3.20;;;;;;;;;;5033869;28;20248;-68
2022/12/27 01:10:23;;;;;;;10.93;3.85;;;;;;;;;;5033746;28;20237;-66
2022/12/27 01:12:51;;;;;;;11.05;3.75;;;;;;;;;;5033415;28;20228;-66
2022/12/27 01:15:18;;;;;;;10.07;3.20;;;;;;;;;;5033879;28;20197;-66
2022/12/27 01:17:45;;;;;;;9.10;3.75;;;;;;;;;;5034065;28;20216;-66
2022/12/27 01:20:12;;;;;;;5.40;3.33;;;;;;;;;;5033775;28;20201;-66
2022/12/27 01:22:39;;;;;;;4.13;2.95;;;;;;;;;;5033675;28;20291;-66
2022/12/27 01:25:09;;;;;;;9.43;4.60;;;;;;;;;;5033435;28;20202;-66
2022/12/27 01:27:36;;;;;;;6.57;3.40;;;;;;;;;;5033903;28;20560;-66
2022/12/27 01:30:03;;;;;;;6.10;3.25;;;;;;;;;;5033769;28;20204;-67
2022/12/27 01:32:32;;;;;;;7.22;3.28;;;;;;;;;;5032826;28;20579;-66
2022/12/27 01:34:59;;;;;;;4.88;3.50;;;;;;;;;;5033714;28;20201;-66
2022/12/27 01:37:28;;;;;;;9.48;4.20;;;;;;;;;;5033213;28;20196;-67
2022/12/27 01:39:55;;;;;;;16.02;4.45;;;;;;;;;;5033689;28;20581;-66
2022/12/27 01:45:14;;;;;;;10.60;4.05;;;;;;;;;;5033334;28;20182;-67
2022/12/27 01:47:45;;;;;;;16.83;3.53;;;;;;;;;;5033312;28;20201;-66
2022/12/27 01:50:16;;;;;;;10.75;4.03;;;;;;;;;;5033514;28;20189;-66
2022/12/27 01:52:45;;;;;;;11.05;4.10;;;;;;;;;;5032940;28;20214;-67
2022/12/27 01:55:16;;;;;;;5.22;3.55;;;;;;;;;;5033346;28;20532;-66
2022/12/27 01:57:44;;;;;;;4.93;4.10;;;;;;;;;;5033106;28;20202;-67
2022/12/27 02:00:12;;;;;;;7.38;4.78;;;;;;;;;;5033345;28;20193;-66
2022/12/27 02:02:40;;;;;;;7.18;3.88;;;;;;;;;;5033682;28;20197;-66
2022/12/27 02:05:08;;;;;;;8.43;4.60;;;;;;;;;;5032985;28;20652;-66
2022/12/27 02:07:39;;;;;;;6.80;4.55;;;;;;;;;;5032908;28;20197;-66
2022/12/27 02:10:06;;;;;;;7.80;4.00;;;;;;;;;;5033235;28;20223;-66
2022/12/27 02:12:34;;;;;;;8.23;4.45;;;;;;;;;;5032756;28;20222;-67
2022/12/27 02:15:03;;;;;;;9.32;4.07;;;;;;;;;;5032807;28;20201;-67
2022/12/27 02:17:31;;;;;;;8.10;3.60;;;;;;;;;;5033194;28;20254;-66
2022/12/27 02:20:01;;;;;;;7.20;3.97;;;;;;;;;;5033070;28;20557;-66
2022/12/27 02:25:24;;;;;;;9.30;4.60;;;;;;;;;;5032720;28;20192;-66
2022/12/27 02:28:00;;;;;;;9.80;4.95;;;;;;;;;;5033423;28;20185;-66
2022/12/27 02:30:29;;;;;;;12.60;4.25;;;;;;;;;;5032687;28;20199;-67
2022/12/27 02:32:59;;;;;;;25.23;5.55;;;;;;;;;;5033571;28;20232;-66
2022/12/27 02:35:27;;;;;;;6.28;4.22;;;;;;;;;;5032895;28;20578;-66
2022/12/27 02:37:58;;;;;;;13.43;5.55;;;;;;;;;;5032994;28;20205;-66
2022/12/27 02:55:07;;;;;;;10.48;4.85;;;;;;;;;;5036148;28;20233;-67
2022/12/27 02:57:39;;;;;;;17.02;5.38;;;;;;;;;;5036536;28;20200;-66
2022/12/27 03:03:23;;;;;;;11.93;5.05;;;;;;;;;;5036206;28;20545;-66
2022/12/27 03:08:53;;;;;;;8.18;4.30;;;;;;;;;;5035812;28;20274;-66
2022/12/27 03:16:55;;;;;;;8.18;3.80;;;;;;;;;;5035909;28;20645;-66
2022/12/27 03:27:35;;;;;;;9.90;5.85;;;;;;;;;;5035814;28;20216;-66
2022/12/27 03:35:42;;;;;;;9.65;3.55;;;;;;;;;;5035561;28;20230;-66
2022/12/27 03:38:11;;;;;;;11.50;3.95;;;;;;;;;;5035633;28;20197;-66
2022/12/27 03:43:09;;;;;;;11.60;4.85;;;;;;;;;;5035661;28;20201;-66
2022/12/27 03:43:28;;;;;;;8.77;3.50;;;;;;;;;;5035182;28;20202;-66
2022/12/27 03:48:49;;;;;;;6.43;3.40;;;;;;;;;;5035349;28;20184;-66
2022/12/27 03:51:20;;;;;;;7.47;3.17;;;;;;;;;;5035423;28;20189;-66
2022/12/27 03:53:49;;;;;;;8.00;4.30;;;;;;;;;;5035386;28;20214;-66
2022/12/27 03:56:16;;;;;;;3.92;3.63;;;;;;;;;;5033900;28;20197;-66
2022/12/27 03:58:44;;;;;;;6.78;3.45;;;;;;;;;;5035337;28;20200;-66
2022/12/27 04:01:11;;;;;;;7.63;3.47;;;;;;;;;;5035061;28;20560;-66
2022/12/27 04:03:38;;;;;;;7.00;3.28;;;;;;;;;;5044364;28;20197;-66
2022/12/27 04:06:05;;;;;;;8.80;4.25;;;;;;;;;;5054595;28;20201;-66
2022/12/27 04:36:03;;;;;;;6.30;4.30;;;;;;;;;;5054174;28;20263;-66
2022/12/27 04:38:31;;;;;;;8.70;5.40;;;;;;;;;;5054037;28;20204;-65
2022/12/27 04:57:33;;;;;;;10.25;4.78;;;;;;;;;;5033860;28;20217;-66
2022/12/27 05:02:46;;;;;;;13.18;7.13;;;;;;;;;;5033984;28;20184;-66
2022/12/27 05:05:13;;;;;;;7.88;4.78;;;;;;;;;;5034097;28;20204;-66
2022/12/27 05:15:56;;;;;;;11.60;6.13;;;;;;;;;;5033544;28;20187;-65
2022/12/27 05:18:24;;;;;;;11.63;5.15;;;;;;;;;;5033798;28;20198;-65
2022/12/27 05:20:51;;;;;;;7.22;5.57;;;;;;;;;;5033758;28;20198;-65
2022/12/27 05:25:59;;;;;;;14.13;6.88;;;;;;;;;;5000260;28;20205;-66
2022/12/27 05:28:28;;;;;;;13.98;5.72;;;;;;;;;;5033329;28;20208;-65
2022/12/27 05:30:55;;;;;;;9.10;6.97;;;;;;;;;;5033704;28;20201;-65
2022/12/27 05:33:22;;;;;;;11.30;6.00;;;;;;;;;;5033086;28;20253;-67
2022/12/27 05:35:49;;;;;;;10.93;6.45;;;;;;;;;;5032989;28;20199;-66
2022/12/27 05:38:16;;;;;;;14.45;7.35;;;;;;;;;;5033168;28;20203;-65
2022/12/27 05:40:44;;;;;;;9.80;5.78;;;;;;;;;;5033913;28;20202;-65
2022/12/27 05:43:11;;;;;;;9.68;6.85;;;;;;;;;;5033097;28;20203;-66
2022/12/27 05:45:39;;;;;;;16.83;7.85;;;;;;;;;;5033408;28;20305;-66
2022/12/27 05:48:06;;;;;;;11.73;6.00;;;;;;;;;;5033346;28;20202;-66
2022/12/27 05:50:34;;;;;;;7.18;5.75;;;;;;;;;;5033070;28;20199;-66
2022/12/27 05:53:01;;;;;;;12.18;6.80;;;;;;;;;;5033203;28;20222;-66
2022/12/27 05:55:28;;;;;;;12.23;6.00;;;;;;;;;;5033238;28;20200;-66
2022/12/27 05:57:55;;;;;;;13.05;6.35;;;;;;;;;;5032954;28;20209;-66
2022/12/27 06:00:22;;;;;;;25.42;8.80;;;;;;;;;;5033029;28;20201;-66
2022/12/27 06:02:51;;;;;;;14.27;6.80;;;;;;;;;;5032899;28;20206;-66
2022/12/27 06:05:18;;;;;;;12.82;7.30;;;;;;;;;;5032974;28;20202;-65
2022/12/27 06:07:46;;;;;;;15.73;6.88;;;;;;;;;;5032760;28;20682;-66
2022/12/27 06:10:13;;;;;;;10.23;6.82;;;;;;;;;;5033487;28;20587;-66
2022/12/27 06:12:40;;;;;;;7.32;6.50;;;;;;;;;;5032744;28;20297;-66
2022/12/27 06:15:08;;;;;;;8.57;5.57;;;;;;;;;;5033038;28;20246;-66
2022/12/27 06:17:35;;;;;;;17.50;6.35;;;;;;;;;;5032709;28;20305;-66
2022/12/27 06:20:04;;;;;;;8.85;5.30;;;;;;;;;;5036724;28;20672;-66
2022/12/27 06:22:31;;;;;;;7.25;5.40;;;;;;;;;;5036840;28;20205;-66
2022/12/27 06:24:58;;;;;;;10.20;6.00;;;;;;;;;;5037185;28;20557;-66
2022/12/27 06:27:25;;;;;;;6.28;4.80;;;;;;;;;;5036796;28;20571;-66
2022/12/27 06:29:53;;;;;;;7.28;6.30;;;;;;;;;;5037334;28;20233;-66
2022/12/27 06:32:20;;;;;;;14.50;6.82;;;;;;;;;;5036697;28;20286;-66
2022/12/27 06:34:47;;;;;;;13.80;6.18;;;;;;;;;;5037130;28;20202;-66
2022/12/27 06:37:17;;;;;;;8.25;6.72;;;;;;;;;;5036804;28;20195;-66
2022/12/27 06:39:44;;;;;;;10.18;6.13;;;;;;;;;;5036204;28;20209;-66
2022/12/27 06:42:11;;;;;;;11.23;5.25;;;;;;;;;;5036246;28;20203;-66
2022/12/27 06:44:38;;;;;;;13.48;6.35;;;;;;;;;;5036821;28;20302;-66
2022/12/27 06:47:05;;;;;;;6.95;6.15;;;;;;;;;;5036478;28;20225;-66
2022/12/27 06:49:33;;;;;;;11.23;7.60;;;;;;;;;;5036178;28;20293;-66
2022/12/27 06:52:00;;;;;;;14.40;6.88;;;;;;;;;;5036308;28;20284;-66
2022/12/27 06:54:29;;;;;;;13.70;7.55;;;;;;;;;;5036358;28;20229;-66
2022/12/27 06:56:57;;;;;;;8.40;7.03;;;;;;;;;;5036277;28;20310;-66
2022/12/27 06:59:24;;;;;;;9.13;5.95;;;;;;;;;;5036450;28;20284;-66
2022/12/27 07:01:51;;;;;;;11.23;5.93;;;;;;;;;;5036036;28;20210;-67
2022/12/27 07:04:18;;;;;;;12.85;5.38;;;;;;;;;;5036062;28;20202;-66
2022/12/27 07:06:45;;;;;;;8.05;6.05;;;;;;;;;;5036284;28;20198;-66
2022/12/27 07:09:13;;;;;;;13.80;6.55;;;;;;;;;;5036040;28;20284;-67
2022/12/27 07:11:41;;;;;;;10.30;7.88;;;;;;;;;;5035791;28;20326;-66
2022/12/27 07:14:09;;;;;;;13.95;7.18;;;;;;;;;;5036091;28;20231;-66
2022/12/27 07:16:36;;;;;;;9.80;6.70;;;;;;;;;;5035784;28;20206;-66
2022/12/27 07:19:04;;;;;;;12.10;4.82;;;;;;;;;;5036035;28;20198;-66
2022/12/27 07:21:31;;;;;;;6.28;5.30;;;;;;;;;;5035663;28;20195;-66
2022/12/27 07:23:58;;;;;;;13.15;7.10;;;;;;;;;;5036048;28;20575;-66
2022/12/27 07:26:27;;;;;;;9.65;6.05;;;;;;;;;;5035655;28;20202;-66
2022/12/27 07:28:56;;;;;;;9.90;5.78;;;;;;;;;;5036023;28;20199;-66
2022/12/27 07:31:25;;;;;;;12.02;7.13;;;;;;;;;;5035866;28;20287;-66
2022/12/27 07:33:53;;;;;;;12.82;5.72;;;;;;;;;;5035640;28;20254;-66
2022/12/27 07:36:21;;;;;;;11.73;7.10;;;;;;;;;;5035449;28;20197;-66
2022/12/27 07:38:49;;;;;;;12.23;5.90;;;;;;;;;;5035568;28;20199;-66
2022/12/27 07:41:16;;;;;;;14.57;6.07;;;;;;;;;;5035683;28;20653;-66
2022/12/27 07:43:44;;;;;;;9.60;6.25;;;;;;;;;;5035846;28;20307;-66
2022/12/27 07:46:13;;;;;;;11.75;8.38;;;;;;;;;;5035217;28;20207;-66
2022/12/27 07:48:40;;;;;;;11.30;6.25;;;;;;;;;;5035108;28;20203;-66
2022/12/27 07:51:08;;;;;;;10.77;6.68;;;;;;;;;;5035729;28;20299;-66
2022/12/27 07:53:36;;;;;;;6.97;6.18;;;;;;;;;;5035232;28;20225;-66
2022/12/27 07:56:06;;;;;;;7.57;6.03;;;;;;;;;;5035025;28;20669;-66
2022/12/27 07:58:36;;;;;;;13.32;7.47;;;;;;;;;;5035237;28;20209;-66
2022/12/27 08:01:03;;;;;;;10.48;5.70;;;;;;;;;;5035299;28;20203;-66
2022/12/27 08:03:32;;;;;;;10.25;6.80;;;;;;;;;;5035289;28;20296;-66
2022/12/27 08:05:59;;;;;;;10.80;8.50;;;;;;;;;;5034817;28;20203;-66
2022/12/27 08:08:28;;;;;;;9.80;7.32;;;;;;;;;;5034680;28;20199;-67
2022/12/27 08:10:55;;;;;;;11.68;5.60;;;;;;;;;;5035128;28;20257;-66
2022/12/27 08:13:23;;;;;;;8.70;4.85;;;;;;;;;;5034565;28;20225;-66
2022/12/27 08:15:52;;;;;;;10.25;5.18;;;;;;;;;;5034709;28;20230;-65
2022/12/27 08:18:19;;;;;;;10.45;6.15;;;;;;;;;;5034907;28;20198;-66
2022/12/27 08:20:48;;;;;;;6.38;4.53;;;;;;;;;;5034747;28;20552;-66
2022/12/27 08:23:15;;;;;;;10.25;4.88;;;;;;;;;;5034717;28;20209;-66
2022/12/27 08:25:42;;;;;;;8.48;5.25;;;;;;;;;;5035239;28;20198;-65
2022/12/27 08:28:12;;;;;;;6.57;4.50;;;;;;;;;;5034644;28;20199;-66
2022/12/27 08:30:39;;;;;;;11.70;4.85;;;;;;;;;;5035129;28;20209;-66
2022/12/27 08:33:07;;;;;;;8.52;5.00;;;;;;;;;;5034451;28;20233;-67
2022/12/27 08:35:34;;;;;;;7.70;4.20;;;;;;;;;;5034329;28;20272;-66
2022/12/27 08:38:02;;;;;;;9.85;5.22;;;;;;;;;;5034755;28;20293;-66
2022/12/27 08:40:30;;;;;;;7.00;4.60;;;;;;;;;;5033002;28;20197;-66
2022/12/27 08:42:57;;;;;;;7.03;5.15;;;;;;;;;;5033868;28;20209;-66
2022/12/27 08:45:24;;;;;;;13.32;5.18;;;;;;;;;;5034274;28;20192;-66
2022/12/27 08:47:51;;;;;;;12.23;5.32;;;;;;;;;;5034299;28;20248;-66
2022/12/27 08:50:18;;;;;;;9.65;5.65;;;;;;;;;;5034099;28;20205;-66
2022/12/27 08:52:46;;;;;;;6.78;4.97;;;;;;;;;;5033845;28;20199;-66
2022/12/27 08:55:14;;;;;;;11.48;5.55;;;;;;;;;;5033669;28;20305;-66
2022/12/27 08:57:41;;;;;;;9.05;4.95;;;;;;;;;;5034070;28;20287;-67
2022/12/27 09:00:09;;;;;;;16.13;5.50;;;;;;;;;;5033980;28;20197;-66
2022/12/27 09:02:37;;;;;;;9.98;4.85;;;;;;;;;;5034544;28;20543;-66
2022/12/27 09:05:05;;;;;;;9.27;4.40;;;;;;;;;;5033780;28;20206;-66
2022/12/27 09:07:32;;;;;;;9.70;5.00;;;;;;;;;;5033591;28;20237;-66
2022/12/27 09:09:59;;;;;;;10.35;6.05;;;;;;;;;;5033275;28;20226;-66
2022/12/27 09:12:28;;;;;;;14.65;5.75;;;;;;;;;;5033822;28;20647;-66
2022/12/27 09:14:55;;;;;;;10.45;5.30;;;;;;;;;;5033879;28;20582;-66
2022/12/27 09:17:22;;;;;;;15.13;5.50;;;;;;;;;;5033721;28;20573;-66
2022/12/27 09:19:49;;;;;;;16.27;5.30;;;;;;;;;;5033591;28;20555;-66
2022/12/27 09:22:16;;;;;;;12.60;5.75;;;;;;;;;;5033571;28;20205;-66
2022/12/27 09:24:44;;;;;;;9.45;5.60;;;;;;;;;;5033800;28;20287;-66
2022/12/27 09:27:11;;;;;;;13.18;5.90;;;;;;;;;;5033644;28;20202;-66
2022/12/27 09:29:39;;;;;;;18.67;6.75;;;;;;;;;;5033421;28;20201;-66
2022/12/27 09:32:06;;;;;;;13.77;6.10;;;;;;;;;;5033103;28;20207;-66
2022/12/27 09:34:34;;;;;;;10.32;5.40;;;;;;;;;;5033335;28;20217;-66
2022/12/27 09:37:01;;;;;;;9.30;6.05;;;;;;;;;;5033547;28;20618;-66
2022/12/27 09:39:28;;;;;;;16.88;6.40;;;;;;;;;;5033336;28;20198;-66
2022/12/27 09:41:59;;;;;;;7.45;5.90;;;;;;;;;;5032979;28;20198;-66
2022/12/27 09:44:30;;;;;;;7.28;6.00;;;;;;;;;;5033245;28;20184;-66
2022/12/27 09:47:01;;;;;;;16.05;7.50;;;;;;;;;;5033099;28;20202;-66
2022/12/27 09:49:31;;;;;;;9.10;6.40;;;;;;;;;;5033505;28;20184;-66
2022/12/27 09:52:00;;;;;;;16.25;8.73;;;;;;;;;;5032959;28;20182;-66
2022/12/27 09:54:29;;;;;;;11.23;8.43;;;;;;;;;;5036257;28;20579;-67
2022/12/27 09:56:58;;;;;;;10.30;7.70;;;;;;;;;;5037124;28;20201;-67
2022/12/27 09:59:27;;;;;;;11.48;7.53;;;;;;;;;;5037016;28;20205;-66
2022/12/27 10:01:54;;;;;;;11.38;8.88;;;;;;;;;;5037518;28;20195;-66
2022/12/27 10:04:23;;;;;;;9.48;6.97;;;;;;;;;;5036867;28;20207;-67
2022/12/27 10:07:01;;;;;;;13.90;9.32;;;;;;;;;;5037338;28;20304;-66
2022/12/27 10:09:33;;;;;;;15.25;8.77;;;;;;;;;;5037235;28;20201;-67
2022/12/27 10:12:04;;;;;;;17.55;8.85;;;;;;;;;;5037305;28;20316;-66
2022/12/27 10:14:34;;;;;;;14.35;8.93;;;;;;;;;;5036703;28;20206;-67
2022/12/27 10:17:04;;;;;;;16.20;9.60;;;;;;;;;;5037368;28;20544;-66
2022/12/27 10:19:40;;;;;;;12.55;8.93;;;;;;;;;;5037368;28;20203;-68
2022/12/27 10:22:15;;;;;;;16.85;10.77;;;;;;;;;;5037027;28;20191;-67
2022/12/27 10:24:45;;;;;;;15.23;8.75;;;;;;;;;;5037122;28;20198;-67
2022/12/27 10:27:14;;;;;;;13.65;7.88;;;;;;;;;;5037633;28;20230;-66
2022/12/27 10:29:42;;;;;;;11.90;8.32;;;;;;;;;;5036563;28;20647;-67
2022/12/27 10:32:11;;;;;;;12.30;8.15;;;;;;;;;;5036566;28;20689;-67
2022/12/27 10:34:39;;;;;;;13.20;8.20;;;;;;;;;;5036982;28;20219;-67
2022/12/27 10:37:07;;;;;;;16.63;8.60;;;;;;;;;;5036786;28;20199;-67
2022/12/27 10:39:35;;;;;;;15.38;8.73;;;;;;;;;;5036803;28;20198;-67
2022/12/27 10:42:05;;;;;;;13.55;8.07;;;;;;;;;;5036371;28;20205;-67
2022/12/27 10:44:33;;;;;;;13.13;7.50;;;;;;;;;;5037222;28;20222;-67
2022/12/27 10:47:00;;;;;;;9.43;7.00;;;;;;;;;;5036635;28;20434;-67
2022/12/27 10:49:28;;;;;;;17.58;8.05;;;;;;;;;;5036296;28;20212;-67
2022/12/27 10:51:58;;;;;;;19.38;8.75;;;;;;;;;;5036195;28;20205;-67
2022/12/27 10:54:26;;;;;;;12.02;6.57;;;;;;;;;;5036122;28;20703;-66
2022/12/27 10:56:54;;;;;;;14.32;6.32;;;;;;;;;;5036368;28;20286;-66
2022/12/27 10:59:22;;;;;;;13.88;6.30;;;;;;;;;;5036305;28;20199;-67
2022/12/27 11:01:53;;;;;;;11.32;7.40;;;;;;;;;;5035952;28;20203;-67
2022/12/27 11:04:21;;;;;;;16.50;8.68;;;;;;;;;;5035544;28;20206;-67
2022/12/27 11:06:50;;;;;;;16.98;7.45;;;;;;;;;;5035945;28;20209;-67
2022/12/27 11:09:26;;;;;;;12.90;8.25;;;;;;;;;;5036040;28;20199;-67
2022/12/27 11:11:53;;;;;;;17.30;7.05;;;;;;;;;;5035775;28;20238;-67
2022/12/27 11:14:21;;;;;;;13.38;7.68;;;;;;;;;;5036093;28;20219;-67
2022/12/27 11:16:49;;;;;;;8.95;6.55;;;;;;;;;;5035949;28;20198;-67
2022/12/27 11:19:21;;;;;;;12.70;6.28;;;;;;;;;;5035829;28;20206;-68
2022/12/27 11:21:48;;;;;;;6.63;5.88;;;;;;;;;;5035572;28;20187;-70
2022/12/27 11:24:16;;;;;;;14.90;6.20;;;;;;;;;;5035864;28;20195;-68
2022/12/27 11:26:50;;;;;;;9.50;5.55;;;;;;;;;;5034738;28;20205;-68
2022/12/27 11:29:19;;;;;;;6.88;5.65;;;;;;;;;;5035880;28;20618;-66
2022/12/27 11:31:47;;;;;;;8.82;5.82;;;;;;;;;;5035541;28;20196;-66
2022/12/27 11:34:16;;;;;;;10.30;5.03;;;;;;;;;;5035617;28;20561;-67
2022/12/27 11:36:46;;;;;;;6.90;6.20;;;;;;;;;;5035294;28;20198;-67
2022/12/27 11:39:28;;;;;;;10.32;5.97;;;;;;;;;;5035276;28;20205;-67
2022/12/27 11:41:57;;;;;;;8.10;5.45;;;;;;;;;;5034998;28;20657;-67
2022/12/27 11:44:27;;;;;;;14.70;6.35;;;;;;;;;;5035536;28;20199;-67
2022/12/27 11:46:57;;;;;;;5.50;5.00;;;;;;;;;;5035912;28;20189;-67
2022/12/27 11:49:28;;;;;;;11.30;5.93;;;;;;;;;;5035377;28;20206;-67
2022/12/27 11:52:08;;;;;;;10.10;6.55;;;;;;;;;;5035597;28;20279;-67
2022/12/27 11:54:46;;;;;;;12.38;6.30;;;;;;;;;;5035436;28;20560;-68
2022/12/27 11:57:20;;;;;;;6.97;5.40;;;;;;;;;;5034972;28;20244;-67
2022/12/27 11:59:53;;;;;;;7.90;5.90;;;;;;;;;;5034862;28;20191;-68
2022/12/27 12:02:27;;;;;;;7.32;6.35;;;;;;;;;;5035295;28;20194;-68
2022/12/27 12:05:05;;;;;;;15.88;6.30;;;;;;;;;;5034816;28;20202;-68
2022/12/27 12:07:42;;;;;;;12.48;7.13;;;;;;;;;;5034956;28;20207;-68
2022/12/27 12:10:15;;;;;;;12.63;5.97;;;;;;;;;;5035195;28;20322;-67
2022/12/27 12:12:53;;;;;;;8.32;5.60;;;;;;;;;;5034685;28;20194;-67
2022/12/27 12:15:30;;;;;;;13.63;5.40;;;;;;;;;;5034479;28;20211;-67
2022/12/27 12:18:02;;;;;;;7.13;5.03;;;;;;;;;;5034862;28;20409;-67
2022/12/27 12:20:39;;;;;;;6.35;4.55;;;;;;;;;;5034527;28;20191;-68
2022/12/27 12:23:10;;;;;;;10.45;5.70;;;;;;;;;;5034792;28;20191;-68
2022/12/27 12:25:46;;;;;;;10.40;4.68;;;;;;;;;;5034565;28;20461;-68
2022/12/27 12:28:26;;;;;;;9.02;4.72;;;;;;;;;;5034755;28;20277;-67
2022/12/27 12:31:04;;;;;;;7.53;4.33;;;;;;;;;;5034652;28;20187;-67
2022/12/27 12:33:41;;;;;;;9.70;4.50;;;;;;;;;;5034290;28;20423;-68
2022/12/27 12:36:25;;;;;;;10.07;4.50;;;;;;;;;;5034234;28;20742;-64
2022/12/27 12:38:58;;;;;;;9.85;5.30;;;;;;;;;;5034423;28;20300;-66
2022/12/27 12:41:31;;;;;;;6.27;5.43;;;;;;;;;;5034536;28;20223;-66
2022/12/27 12:44:10;;;;;;;7.45;5.43;;;;;;;;;;5034143;28;20435;-66
2022/12/27 12:46:39;;;;;;;7.68;4.80;;;;;;;;;;5034618;28;20187;-67
2022/12/27 12:49:10;;;;;;;5.72;4.43;;;;;;;;;;5034136;28;20204;-66
2022/12/27 12:51:48;;;;;;;11.73;4.80;;;;;;;;;;5034902;28;20194;-67
2022/12/27 12:54:27;;;;;;;9.63;4.30;;;;;;;;;;5033882;28;20924;-66
2022/12/27 12:56:59;;;;;;;14.98;5.88;;;;;;;;;;5033828;28;20434;-66
2022/12/27 12:59:48;;;;;;;8.65;4.50;;;;;;;;;;5034454;28;20187;-66
2022/12/27 13:02:22;;;;;;;8.20;4.20;;;;;;;;;;5034537;28;20184;-66
2022/12/27 13:05:00;;;;;;;7.95;4.50;;;;;;;;;;5034312;28;20524;-66
2022/12/27 13:07:33;;;;;;;10.27;5.32;;;;;;;;;;5034007;28;20186;-66
2022/12/27 13:10:15;;;;;;;9.00;4.67;;;;;;;;;;5033645;28;20227;-66
2022/12/27 13:12:46;;;;;;;8.23;4.47;;;;;;;;;;5033901;28;20418;-66
2022/12/27 13:15:20;;;;;;;11.32;4.88;;;;;;;;;;5033927;28;20286;-67
2022/12/27 13:17:53;;;;;;;8.87;4.40;;;;;;;;;;5033953;28;20184;-66
2022/12/27 13:20:36;;;;;;;11.27;4.40;;;;;;;;;;5033903;28;20916;-66
2022/12/27 13:23:09;;;;;;;11.35;4.40;;;;;;;;;;5034183;28;20218;-66
2022/12/27 13:25:40;;;;;;;11.73;4.18;;;;;;;;;;5034329;28;20188;-66
2022/12/27 13:28:19;;;;;;;10.27;4.65;;;;;;;;;;5033668;28;20190;-66
2022/12/27 13:30:53;;;;;;;11.13;3.83;;;;;;;;;;5034015;28;20190;-66
2022/12/27 13:33:27;;;;;;;9.97;3.90;;;;;;;;;;5033845;28;20429;-66
2022/12/27 13:36:01;;;;;;;5.70;3.58;;;;;;;;;;5033819;28;20465;-66
2022/12/27 13:38:35;;;;;;;6.63;3.40;;;;;;;;;;5033587;28;20189;-66
2022/12/27 13:41:14;;;;;;;11.57;4.22;;;;;;;;;;5033457;28;20270;-66
2022/12/27 13:43:59;;;;;;;10.67;5.00;;;;;;;;;;5033192;28;20183;-66
2022/12/27 13:46:47;;;;;;;6.83;3.87;;;;;;;;;;5033381;28;20438;-66
2022/12/27 13:49:30;;;;;;;9.50;4.10;;;;;;;;;;5033408;28;20433;-66
2022/12/27 13:52:00;;;;;;;5.50;2.78;;;;;;;;;;5033521;28;20188;-66
2022/12/27 13:54:41;;;;;;;9.00;4.32;;;;;;;;;;5033507;28;20191;-66
2022/12/27 13:57:15;;;;;;;12.65;4.65;;;;;;;;;;5033521;28;20192;-66
2022/12/27 13:59:53;;;;;;;11.77;3.42;;;;;;;;;;5033250;28;20191;-67
2022/12/27 14:02:38;;;;;;;9.25;3.15;;;;;;;;;;5034018;28;20193;-66
2022/12/27 14:05:23;;;;;;;11.77;4.00;;;;;;;;;;5033520;28;20188;-66
2022/12/27 14:07:57;;;;;;;6.53;3.40;;;;;;;;;;5032755;28;20196;-66
2022/12/27 14:10:32;;;;;;;8.80;3.05;;;;;;;;;;5033248;28;20481;-66
2022/12/27 14:13:01;;;;;;;8.57;3.35;;;;;;;;;;5033562;28;20202;-66
2022/12/27 14:15:40;;;;;;;9.23;3.20;;;;;;;;;;5033179;28;20315;-66
2022/12/27 14:18:17;;;;;;;10.70;4.05;;;;;;;;;;5033381;28;20195;-67
2022/12/27 14:21:02;;;;;;;5.57;3.30;;;;;;;;;;5033929;28;20189;-66
2022/12/27 14:23:44;;;;;;;13.43;4.68;;;;;;;;;;5032810;28;20668;-66
2022/12/27 14:26:26;;;;;;;11.30;3.50;;;;;;;;;;5024810;28;20295;-66
2022/12/27 14:29:23;;;;;;;7.72;3.42;;;;;;;;;;5031256;28;20253;-66
2022/12/27 14:31:57;;;;;;;8.65;3.50;;;;;;;;;;5032703;28;20278;-67
2022/12/27 14:34:42;;;;;;;10.35;4.32;;;;;;;;;;5033244;28;20254;-66
2022/12/27 14:37:21;;;;;;;11.05;3.72;;;;;;;;;;5033188;28;20190;-66
2022/12/27 14:40:06;;;;;;;9.02;3.90;;;;;;;;;;5035082;28;20203;-68
2022/12/27 14:42:53;;;;;;;10.35;4.13;;;;;;;;;;5037727;28;20190;-66
2022/12/27 14:45:39;;;;;;;7.07;4.68;;;;;;;;;;5036503;28;20195;-67
2022/12/27 14:48:24;;;;;;;10.48;4.25;;;;;;;;;;5036124;28;20672;-67
2022/12/27 14:51:09;;;;;;;6.97;5.25;;;;;;;;;;5036789;28;20192;-67
2022/12/27 14:54:08;;;;;;;10.32;4.78;;;;;;;;;;5036630;28;20266;-67
2022/12/27 14:56:38;;;;;;;12.07;5.35;;;;;;;;;;5036753;28;20208;-66
2022/12/27 14:59:12;;;;;;;9.50;6.13;;;;;;;;;;5036281;28;20191;-66
2022/12/27 15:01:49;;;;;;;10.52;5.60;;;;;;;;;;5036113;28;20182;-66
2022/12/27 15:04:40;;;;;;;10.05;5.07;;;;;;;;;;5036242;28;20270;-66
2022/12/27 15:07:17;;;;;;;18.00;5.57;;;;;;;;;;5016815;28;20640;-66
2022/12/27 15:09:50;;;;;;;12.18;5.10;;;;;;;;;;5035879;28;20202;-66
2022/12/27 15:12:24;;;;;;;10.80;4.90;;;;;;;;;;5035924;28;20274;-66
2022/12/27 15:15:01;;;;;;;14.65;5.38;;;;;;;;;;5035871;28;20621;-66
2022/12/27 15:17:36;;;;;;;5.90;4.22;;;;;;;;;;5036200;28;20270;-66
2022/12/27 15:20:14;;;;;;;14.73;4.35;;;;;;;;;;5035955;28;20186;-66
2022/12/27 15:22:47;;;;;;;9.55;4.53;;;;;;;;;;5035595;28;20251;-64
2022/12/27 15:25:21;;;;;;;7.15;4.47;;;;;;;;;;5035529;28;20184;-65
2022/12/27 15:27:51;;;;;;;7.72;5.38;;;;;;;;;;5035498;28;20187;-65
2022/12/27 15:30:21;;;;;;;9.43;5.50;;;;;;;;;;5035505;28;20212;-65
2022/12/27 15:32:53;;;;;;;7.85;4.95;;;;;;;;;;5035556;28;20278;-65
2022/12/27 15:35:30;;;;;;;9.73;5.90;;;;;;;;;;5035160;28;20187;-66
2022/12/27 15:38:05;;;;;;;10.82;5.32;;;;;;;;;;5035428;28;20274;-64
2022/12/27 15:40:50;;;;;;;9.43;4.80;;;;;;;;;;5034832;28;20259;-66
2022/12/27 15:43:35;;;;;;;7.47;4.68;;;;;;;;;;5014458;28;20546;-66
2022/12/27 15:46:11;;;;;;;9.45;6.15;;;;;;;;;;5014589;28;20199;-65
2022/12/27 15:48:45;;;;;;;9.48;4.85;;;;;;;;;;5035843;28;20184;-72
2022/12/27 15:51:17;;;;;;;10.43;5.50;;;;;;;;;;5034125;28;20293;-66
2022/12/27 15:53:49;;;;;;;7.70;4.88;;;;;;;;;;5035359;28;20223;-65
2022/12/27 15:56:36;;;;;;;9.32;5.82;;;;;;;;;;5034737;28;20695;-66
2022/12/27 15:59:22;;;;;;;7.20;4.90;;;;;;;;;;5035297;28;20183;-66
2022/12/27 16:02:10;;;;;;;13.00;6.32;;;;;;;;;;5034743;28;20199;-65
2022/12/27 16:04:46;;;;;;;9.73;5.22;;;;;;;;;;5035455;28;20191;-66
2022/12/27 16:07:28;;;;;;;6.65;4.68;;;;;;;;;;5034790;28;20282;-66
2022/12/27 16:09:56;;;;;;;14.70;6.25;;;;;;;;;;5034364;28;20756;-65
2022/12/27 16:12:36;;;;;;;13.98;7.80;;;;;;;;;;5034800;28;20191;-66
2022/12/27 16:15:18;;;;;;;8.80;5.15;;;;;;;;;;5034736;28;20194;-65
2022/12/27 16:17:54;;;;;;;8.88;4.85;;;;;;;;;;5034678;28;20513;-65
2022/12/27 16:20:22;;;;;;;11.85;5.28;;;;;;;;;;5034603;28;20187;-65
2022/12/27 16:22:52;;;;;;;8.60;7.13;;;;;;;;;;5035080;28;20195;-65
2022/12/27 16:25:22;;;;;;;11.13;5.00;;;;;;;;;;5034667;28;20211;-66
2022/12/27 16:27:54;;;;;;;8.98;4.63;;;;;;;;;;5034376;28;20187;-65
2022/12/27 16:30:34;;;;;;;9.18;4.90;;;;;;;;;;5034173;28;20194;-65
2022/12/27 16:33:03;;;;;;;8.38;4.72;;;;;;;;;;5034406;28;20226;-65
2022/12/27 16:35:31;;;;;;;13.07;5.15;;;;;;;;;;5034025;28;20687;-65
2022/12/27 16:38:02;;;;;;;12.98;5.35;;;;;;;;;;5035309;28;20195;-64
2022/12/27 16:40:38;;;;;;;8.15;4.70;;;;;;;;;;5034572;28;20196;-65
2022/12/27 16:43:30;;;;;;;14.70;6.40;;;;;;;;;;5034473;28;20292;-64
2022/12/27 16:46:06;;;;;;;11.10;5.63;;;;;;;;;;5034474;28;20254;-64